sensor_id;sensor_type;location;lat;lon;timestamp;pressure;altitude;pressure_sealevel;temperature;humidity
28630;BME280;15817;42.130;24.762;2023-02-16T01:01:34;101264.66;;;5.00;72.54
28630;BME280;15817;42.130;24.762;2023-02-16T01:04:31;101266.28;;;4.97;72.74
28630;BME280;15817;42.130;24.762;2023-02-16T01:07:04;101266.34;;;4.98;72.89
28630;BME280;15817;42.130;24.762;2023-02-16T01:10:17;101269.41;;;4.87;73.51
28630;BME280;15817;42.130;24.762;2023-02-16T01:46:57;101252.78;;;4.45;74.29
28630;BME280;15817;42.130;24.762;2023-02-16T02:03:37;101264.09;;;4.21;72.27
28630;BME280;15817;42.130;24.762;2023-02-16T02:06:41;101258.19;;;4.06;72.16
28630;BME280;15817;42.130;24.762;2023-02-16T02:16:35;101255.09;;;3.95;72.96
28630;BME280;15817;42.130;24.762;2023-02-16T02:19:04;101252.31;;;3.92;73.26
28630;BME280;15817;42.130;24.762;2023-02-16T02:28:11;101260.19;;;4.12;75.26
28630;BME280;15817;42.130;24.762;2023-02-16T02:31:36;101262.81;;;4.12;75.22
28630;BME280;15817;42.130;24.762;2023-02-16T02:34:24;101255.38;;;4.02;74.24
28630;BME280;15817;42.130;24.762;2023-02-16T02:37:14;101253.59;;;3.81;74.48
28630;BME280;15817;42.130;24.762;2023-02-16T02:43:07;101262.97;;;3.75;74.47
28630;BME280;15817;42.130;24.762;2023-02-16T02:46:33;101259.66;;;3.59;74.32
28630;BME280;15817;42.130;24.762;2023-02-16T02:49:30;101264.66;;;3.53;74.11
28630;BME280;15817;42.130;24.762;2023-02-16T02:53:02;101273.88;;;3.44;73.84
28630;BME280;15817;42.130;24.762;2023-02-16T02:55:59;101269.03;;;3.34;74.81
28630;BME280;15817;42.130;24.762;2023-02-16T02:59:17;101266.03;;;3.26;74.84
28630;BME280;15817;42.130;24.762;2023-02-16T03:02:40;101275.22;;;3.36;75.22
28630;BME280;15817;42.130;24.762;2023-02-16T03:05:24;101271.69;;;3.35;74.77
28630;BME280;15817;42.130;24.762;2023-02-16T03:08:26;101285.72;;;3.34;75.69
28630;BME280;15817;42.130;24.762;2023-02-16T03:11:10;101275.03;;;3.31;75.18
28630;BME280;15817;42.130;24.762;2023-02-16T03:14:34;101272.75;;;3.39;75.62
28630;BME280;15817;42.130;24.762;2023-02-16T03:17:19;101277.31;;;3.43;76.23
28630;BME280;15817;42.130;24.762;2023-02-16T03:20:27;101267.50;;;3.39;76.23
28630;BME280;15817;42.130;24.762;2023-02-16T03:23:22;101263.97;;;3.38;76.63
28630;BME280;15817;42.130;24.762;2023-02-16T03:26:10;101264.84;;;3.39;77.17
28630;BME280;15817;42.130;24.762;2023-02-16T03:28:56;101253.44;;;3.38;77.26
28630;BME280;15817;42.130;24.762;2023-02-16T03:31:54;101266.66;;;3.40;77.53
28630;BME280;15817;42.130;24.762;2023-02-16T03:34:43;101257.03;;;3.40;78.03
28630;BME280;15817;42.130;24.762;2023-02-16T03:37:25;101252.59;;;3.39;78.00
28630;BME280;15817;42.130;24.762;2023-02-16T03:59:48;101248.81;;;3.33;79.11
28630;BME280;15817;42.130;24.762;2023-02-16T04:18:28;101244.09;;;3.25;79.60
28630;BME280;15817;42.130;24.762;2023-02-16T04:21:05;101247.63;;;3.26;80.01
28630;BME280;15817;42.130;24.762;2023-02-16T04:27:13;101251.38;;;3.31;79.78
28630;BME280;15817;42.130;24.762;2023-02-16T04:30:18;101258.38;;;3.31;78.81
28630;BME280;15817;42.130;24.762;2023-02-16T04:41:05;101269.69;;;3.10;79.50
28630;BME280;15817;42.130;24.762;2023-02-16T04:44:07;101264.38;;;3.09;79.58
28630;BME280;15817;42.130;24.762;2023-02-16T04:53:22;101268.56;;;2.86;77.87
28630;BME280;15817;42.130;24.762;2023-02-16T04:56:19;101286.31;;;2.91;77.33
28630;BME280;15817;42.130;24.762;2023-02-16T05:04:30;101290.78;;;2.75;78.47
28630;BME280;15817;42.130;24.762;2023-02-16T05:07:25;101292.19;;;2.68;78.04
28630;BME280;15817;42.130;24.762;2023-02-16T05:11:25;101285.03;;;2.64;78.79
28630;BME280;15817;42.130;24.762;2023-02-16T05:14:29;101293.41;;;2.57;79.13
28630;BME280;15817;42.130;24.762;2023-02-16T05:20:37;101305.03;;;2.62;79.26
28630;BME280;15817;42.130;24.762;2023-02-16T05:23:43;101306.84;;;2.63;79.31
28630;BME280;15817;42.130;24.762;2023-02-16T05:27:22;101301.06;;;2.52;79.26
28630;BME280;15817;42.130;24.762;2023-02-16T05:40:10;101318.84;;;2.58;80.14
28630;BME280;15817;42.130;24.762;2023-02-16T05:42:40;101310.31;;;2.62;79.87
28630;BME280;15817;42.130;24.762;2023-02-16T05:45:11;101318.38;;;2.67;80.24
28630;BME280;15817;42.130;24.762;2023-02-16T05:47:50;101329.94;;;2.70;80.14
28630;BME280;15817;42.130;24.762;2023-02-16T05:50:37;101326.66;;;2.74;80.61
28630;BME280;15817;42.130;24.762;2023-02-16T05:53:26;101319.28;;;2.67;80.77
28630;BME280;15817;42.130;24.762;2023-02-16T05:56:04;101332.00;;;2.76;80.98
28630;BME280;15817;42.130;24.762;2023-02-16T05:58:30;101324.53;;;2.67;80.18
28630;BME280;15817;42.130;24.762;2023-02-16T06:01:06;101327.16;;;2.67;79.74
28630;BME280;15817;42.130;24.762;2023-02-16T06:03:32;101319.28;;;2.67;79.63
28630;BME280;15817;42.130;24.762;2023-02-16T06:06:15;101325.53;;;2.69;79.11
28630;BME280;15817;42.130;24.762;2023-02-16T06:08:57;101326.25;;;2.67;79.10
28630;BME280;15817;42.130;24.762;2023-02-16T06:11:23;101325.53;;;2.69;79.40
28630;BME280;15817;42.130;24.762;2023-02-16T06:14:26;101328.97;;;2.68;79.44
28630;BME280;15817;42.130;24.762;2023-02-16T06:20:46;101339.09;;;2.78;79.39
28630;BME280;15817;42.130;24.762;2023-02-16T06:24:10;101338.50;;;2.84;79.96
28630;BME280;15817;42.130;24.762;2023-02-16T06:26:46;101328.09;;;2.85;79.96
28630;BME280;15817;42.130;24.762;2023-02-16T06:29:12;101327.34;;;2.88;80.07
28630;BME280;15817;42.130;24.762;2023-02-16T06:31:49;101348.91;;;3.00;81.18
28630;BME280;15817;42.130;24.762;2023-02-16T06:34:45;101343.81;;;3.03;81.53
28630;BME280;15817;42.130;24.762;2023-02-16T06:38:02;101345.69;;;3.06;81.71
28630;BME280;15817;42.130;24.762;2023-02-16T06:40:38;101348.75;;;3.15;81.52
28630;BME280;15817;42.130;24.762;2023-02-16T06:43:09;101334.59;;;3.11;81.44
28630;BME280;15817;42.130;24.762;2023-02-16T06:45:43;101341.78;;;3.15;81.59
28630;BME280;15817;42.130;24.762;2023-02-16T06:48:19;101349.19;;;3.24;81.08
28630;BME280;15817;42.130;24.762;2023-02-16T06:50:48;101352.88;;;3.27;81.50
28630;BME280;15817;42.130;24.762;2023-02-16T06:57:18;101345.06;;;3.29;81.52
28630;BME280;15817;42.130;24.762;2023-02-16T06:59:56;101343.31;;;3.30;81.66
28630;BME280;15817;42.130;24.762;2023-02-16T07:02:29;101354.06;;;3.34;81.26
28630;BME280;15817;42.130;24.762;2023-02-16T07:05:00;101357.72;;;3.38;81.14
28630;BME280;15817;42.130;24.762;2023-02-16T07:11:28;101352.69;;;3.42;80.85
28630;BME280;15817;42.130;24.762;2023-02-16T07:14:00;101363.38;;;3.45;81.68
28630;BME280;15817;42.130;24.762;2023-02-16T07:16:32;101344.88;;;3.44;81.55
28630;BME280;15817;42.130;24.762;2023-02-16T07:18:58;101353.09;;;3.51;81.26
28630;BME280;15817;42.130;24.762;2023-02-16T07:21:24;101354.16;;;3.55;82.39
28630;BME280;15817;42.130;24.762;2023-02-16T07:23:50;101354.00;;;3.71;85.24
28630;BME280;15817;42.130;24.762;2023-02-16T07:26:19;101353.25;;;3.74;81.90
28630;BME280;15817;42.130;24.762;2023-02-16T07:28:44;101354.09;;;3.73;81.15
28630;BME280;15817;42.130;24.762;2023-02-16T07:31:45;101357.75;;;3.76;80.80
28630;BME280;15817;42.130;24.762;2023-02-16T07:38:47;101347.25;;;3.76;80.68
28630;BME280;15817;42.130;24.762;2023-02-16T07:45:13;101356.03;;;3.77;80.93
28630;BME280;15817;42.130;24.762;2023-02-16T07:47:39;101356.19;;;3.80;79.88
28630;BME280;15817;42.130;24.762;2023-02-16T07:50:05;101345.59;;;3.78;80.32
28630;BME280;15817;42.130;24.762;2023-02-16T07:53:02;101347.50;;;3.82;79.21
28630;BME280;15817;42.130;24.762;2023-02-16T08:02:36;101356.31;;;4.02;77.99
28630;BME280;15817;42.130;24.762;2023-02-16T08:05:05;101351.38;;;4.10;76.94
28630;BME280;15817;42.130;24.762;2023-02-16T08:07:33;101351.56;;;4.14;75.63
28630;BME280;15817;42.130;24.762;2023-02-16T08:10:10;101349.34;;;4.23;75.19
28630;BME280;15817;42.130;24.762;2023-02-16T08:12:54;101359.66;;;4.40;74.92
28630;BME280;15817;42.130;24.762;2023-02-16T08:15:34;101345.81;;;4.44;73.75
28630;BME280;15817;42.130;24.762;2023-02-16T08:19:00;101356.94;;;4.57;72.08
28630;BME280;15817;42.130;24.762;2023-02-16T08:22:29;101363.84;;;4.76;71.02
28630;BME280;15817;42.130;24.762;2023-02-16T08:25:01;101357.06;;;4.81;70.54
28630;BME280;15817;42.130;24.762;2023-02-16T08:27:37;101359.28;;;4.93;70.24
28630;BME280;15817;42.130;24.762;2023-02-16T08:30:24;101358.81;;;5.03;69.49
28630;BME280;15817;42.130;24.762;2023-02-16T08:33:02;101356.59;;;5.14;68.95
28630;BME280;15817;42.130;24.762;2023-02-16T08:35:36;101357.81;;;5.22;68.33
28630;BME280;15817;42.130;24.762;2023-02-16T08:38:14;101356.63;;;5.36;67.87
28630;BME280;15817;42.130;24.762;2023-02-16T08:40:57;101351.63;;;5.43;67.78
28630;BME280;15817;42.130;24.762;2023-02-16T08:43:50;101351.25;;;5.57;67.20
28630;BME280;15817;42.130;24.762;2023-02-16T08:46:31;101353.38;;;5.67;67.44
28630;BME280;15817;42.130;24.762;2023-02-16T08:49:07;101344.81;;;5.72;66.77
28630;BME280;15817;42.130;24.762;2023-02-16T08:51:36;101346.19;;;5.85;66.28
28630;BME280;15817;42.130;24.762;2023-02-16T08:54:21;101337.72;;;5.94;65.53
28630;BME280;15817;42.130;24.762;2023-02-16T08:57:33;101354.06;;;6.07;64.59
28630;BME280;15817;42.130;24.762;2023-02-16T09:04:35;101338.00;;;6.27;64.07
28630;BME280;15817;42.130;24.762;2023-02-16T09:08:00;101340.34;;;6.43;63.71
28630;BME280;15817;42.130;24.762;2023-02-16T09:10:52;101336.03;;;6.45;62.93
28630;BME280;15817;42.130;24.762;2023-02-16T09:16:53;101327.06;;;6.67;63.64
28630;BME280;15817;42.130;24.762;2023-02-16T09:20:07;101331.81;;;6.77;63.25
28630;BME280;15817;42.130;24.762;2023-02-16T09:22:52;101328.56;;;6.85;62.91
28630;BME280;15817;42.130;24.762;2023-02-16T09:29:18;101327.19;;;6.98;62.30
28630;BME280;15817;42.130;24.762;2023-02-16T09:32:04;101331.81;;;7.04;61.90
28630;BME280;15817;42.130;24.762;2023-02-16T09:34:53;101314.53;;;7.16;62.34
28630;BME280;15817;42.130;24.762;2023-02-16T09:37:42;101313.28;;;7.32;62.41
28630;BME280;15817;42.130;24.762;2023-02-16T09:40:44;101306.41;;;7.39;61.42
28630;BME280;15817;42.130;24.762;2023-02-16T09:47:38;101312.47;;;7.64;61.10
28630;BME280;15817;42.130;24.762;2023-02-16T09:50:36;101311.66;;;7.67;60.69
28630;BME280;15817;42.130;24.762;2023-02-16T10:07:13;101284.94;;;8.22;59.06
28630;BME280;15817;42.130;24.762;2023-02-16T10:09:50;101271.81;;;8.27;58.64
28630;BME280;15817;42.130;24.762;2023-02-16T10:12:45;101271.19;;;8.35;58.23
28630;BME280;15817;42.130;24.762;2023-02-16T10:15:21;101265.16;;;8.41;57.79
28630;BME280;15817;42.130;24.762;2023-02-16T10:17:55;101277.56;;;8.44;57.79
28630;BME280;15817;42.130;24.762;2023-02-16T10:26:39;101258.63;;;8.63;56.87
28630;BME280;15817;42.130;24.762;2023-02-16T10:29:20;101273.13;;;8.79;57.09
28630;BME280;15817;42.130;24.762;2023-02-16T10:32:26;101259.16;;;8.86;55.99
28630;BME280;15817;42.130;24.762;2023-02-16T10:48:47;101234.69;;;8.99;55.21
28630;BME280;15817;42.130;24.762;2023-02-16T10:51:32;101237.34;;;9.00;54.99
28630;BME280;15817;42.130;24.762;2023-02-16T10:54:15;101237.41;;;9.02;53.99
28630;BME280;15817;42.130;24.762;2023-02-16T10:57:05;101224.41;;;9.14;53.82
28630;BME280;15817;42.130;24.762;2023-02-16T11:00:04;101229.22;;;9.32;52.96
28630;BME280;15817;42.130;24.762;2023-02-16T11:02:44;101219.44;;;9.29;52.60
28630;BME280;15817;42.130;24.762;2023-02-16T11:05:35;101213.31;;;9.35;52.74
28630;BME280;15817;42.130;24.762;2023-02-16T11:08:11;101205.38;;;9.35;53.21
28630;BME280;15817;42.130;24.762;2023-02-16T11:10:52;101197.41;;;9.35;52.77
28630;BME280;15817;42.130;24.762;2023-02-16T11:13:29;101209.13;;;9.44;53.00
28630;BME280;15817;42.130;24.762;2023-02-16T11:16:04;101190.53;;;9.46;53.16
28630;BME280;15817;42.130;24.762;2023-02-16T11:18:45;101197.84;;;9.58;53.14
28630;BME280;15817;42.130;24.762;2023-02-16T11:21:44;101191.88;;;9.68;53.03
28630;BME280;15817;42.130;24.762;2023-02-16T11:24:35;101198.19;;;9.74;53.02
28630;BME280;15817;42.130;24.762;2023-02-16T11:27:47;101176.84;;;9.70;52.53
28630;BME280;15817;42.130;24.762;2023-02-16T11:30:40;101177.63;;;9.64;52.46
28630;BME280;15817;42.130;24.762;2023-02-16T11:33:30;101171.44;;;9.64;52.45
28630;BME280;15817;42.130;24.762;2023-02-16T11:39:22;101166.94;;;9.61;51.62
28630;BME280;15817;42.130;24.762;2023-02-16T11:43:01;101166.94;;;9.61;52.46
28630;BME280;15817;42.130;24.762;2023-02-16T11:45:34;101158.94;;;9.60;52.48
28630;BME280;15817;42.130;24.762;2023-02-16T11:48:25;101155.44;;;9.62;52.70
28630;BME280;15817;42.130;24.762;2023-02-16T11:51:06;101151.00;;;9.61;53.46
28630;BME280;15817;42.130;24.762;2023-02-16T11:53:59;101151.88;;;9.60;52.83
28630;BME280;15817;42.130;24.762;2023-02-16T11:56:43;101144.72;;;9.58;52.71
28630;BME280;15817;42.130;24.762;2023-02-16T11:59:39;101145.78;;;9.66;52.45
28630;BME280;15817;42.130;24.762;2023-02-16T12:03:15;101137.00;;;9.68;52.87
28630;BME280;15817;42.130;24.762;2023-02-16T12:12:12;101117.31;;;9.59;52.37
28630;BME280;15817;42.130;24.762;2023-02-16T12:18:10;101112.88;;;9.59;52.09
28630;BME280;15817;42.130;24.762;2023-02-16T12:23:50;101115.63;;;9.64;52.04
28630;BME280;15817;42.130;24.762;2023-02-16T12:26:51;101105.94;;;9.66;51.30
28630;BME280;15817;42.130;24.762;2023-02-16T12:29:59;101103.22;;;9.63;52.21
28630;BME280;15817;42.130;24.762;2023-02-16T12:32:38;101098.75;;;9.60;52.06
28630;BME280;15817;42.130;24.762;2023-02-16T12:41:38;101074.19;;;9.73;51.98
28630;BME280;15817;42.130;24.762;2023-02-16T12:55:47;101062.06;;;9.89;51.76
28630;BME280;15817;42.130;24.762;2023-02-16T12:58:42;101057.50;;;9.80;52.12
28630;BME280;15817;42.130;24.762;2023-02-16T13:11:55;101033.34;;;9.67;52.15
28630;BME280;15817;42.130;24.762;2023-02-16T13:20:58;101034.41;;;9.78;50.80
28630;BME280;15817;42.130;24.762;2023-02-16T13:45:57;100988.25;;;9.71;51.17
28630;BME280;15817;42.130;24.762;2023-02-16T13:48:51;100998.13;;;9.81;50.98
28630;BME280;15817;42.130;24.762;2023-02-16T13:56:35;101010.53;;;9.81;50.86
28630;BME280;15817;42.130;24.762;2023-02-16T15:17:48;100961.53;;;9.62;52.86
28630;BME280;15817;42.130;24.762;2023-02-16T15:20:35;100962.38;;;9.57;52.82
28630;BME280;15817;42.130;24.762;2023-02-16T15:25:58;100950.69;;;9.49;53.34
28630;BME280;15817;42.130;24.762;2023-02-16T15:29:19;100972.91;;;9.52;53.08
28630;BME280;15817;42.130;24.762;2023-02-16T15:31:54;100948.84;;;9.43;53.33
28630;BME280;15817;42.130;24.762;2023-02-16T15:34:34;100957.56;;;9.36;53.41
28630;BME280;15817;42.130;24.762;2023-02-16T15:37:28;100970.13;;;9.44;53.40
28630;BME280;15817;42.130;24.762;2023-02-16T15:40:13;100960.22;;;9.34;53.85
28630;BME280;15817;42.130;24.762;2023-02-16T15:42:42;100966.50;;;9.39;53.66
28630;BME280;15817;42.130;24.762;2023-02-16T15:45:36;100964.66;;;9.34;53.80
28630;BME280;15817;42.130;24.762;2023-02-16T15:51:15;100950.31;;;9.23;54.58
28630;BME280;15817;42.130;24.762;2023-02-16T15:53:54;100951.06;;;9.17;54.78
28630;BME280;15817;42.130;24.762;2023-02-16T15:56:36;100953.69;;;9.16;54.67
28630;BME280;15817;42.130;24.762;2023-02-16T16:02:01;100947.38;;;9.07;55.35
28630;BME280;15817;42.130;24.762;2023-02-16T16:04:31;100953.50;;;9.05;55.87
28630;BME280;15817;42.130;24.762;2023-02-16T16:07:10;100962.25;;;8.98;56.38
28630;BME280;15817;42.130;24.762;2023-02-16T16:09:40;100960.69;;;9.12;60.37
28630;BME280;15817;42.130;24.762;2023-02-16T16:15:44;100968.44;;;9.00;57.02
28630;BME280;15817;42.130;24.762;2023-02-16T16:18:45;100977.28;;;8.97;57.10
28630;BME280;15817;42.130;24.762;2023-02-16T16:24:04;100964.50;;;8.77;58.08
28630;BME280;15817;42.130;24.762;2023-02-16T16:26:51;100964.44;;;8.74;57.79
28630;BME280;15817;42.130;24.762;2023-02-16T16:29:34;100989.25;;;8.77;59.02
28630;BME280;15817;42.130;24.762;2023-02-16T16:32:15;100969.56;;;8.66;61.96
28630;BME280;15817;42.130;24.762;2023-02-16T16:34:41;100982.00;;;8.68;61.61
28630;BME280;15817;42.130;24.762;2023-02-16T16:37:35;100996.13;;;8.67;60.55
28630;BME280;15817;42.130;24.762;2023-02-16T16:42:31;100983.50;;;8.54;60.74
28630;BME280;15817;42.130;24.762;2023-02-16T16:45:50;100996.03;;;8.61;60.81
28630;BME280;15817;42.130;24.762;2023-02-16T16:48:13;100988.75;;;8.51;60.61
28630;BME280;15817;42.130;24.762;2023-02-16T16:50:47;100992.19;;;8.47;59.70
28630;BME280;15817;42.130;24.762;2023-02-16T16:53:37;100990.44;;;8.48;59.42
28630;BME280;15817;42.130;24.762;2023-02-16T16:56:13;100993.06;;;8.46;60.47
28630;BME280;15817;42.130;24.762;2023-02-16T16:58:41;100997.50;;;8.47;60.42
28630;BME280;15817;42.130;24.762;2023-02-16T17:01:10;101003.63;;;8.45;60.13
28630;BME280;15817;42.130;24.762;2023-02-16T17:03:43;101001.78;;;8.41;59.87
28630;BME280;15817;42.130;24.762;2023-02-16T17:06:09;100992.84;;;8.35;59.75
28630;BME280;15817;42.130;24.762;2023-02-16T17:08:38;100994.56;;;8.33;60.10
28630;BME280;15817;42.130;24.762;2023-02-16T17:14:09;101003.47;;;8.37;61.21
28630;BME280;15817;42.130;24.762;2023-02-16T17:16:41;100996.16;;;8.27;60.84
28630;BME280;15817;42.130;24.762;2023-02-16T17:19:21;101008.66;;;8.32;60.20
28630;BME280;15817;42.130;24.762;2023-02-16T17:21:48;100996.00;;;8.21;60.15
28630;BME280;15817;42.130;24.762;2023-02-16T17:24:20;100991.56;;;8.18;60.87
28630;BME280;15817;42.130;24.762;2023-02-16T17:26:50;100996.81;;;8.17;60.65
28630;BME280;15817;42.130;24.762;2023-02-16T17:29:18;100987.88;;;8.12;61.16
28630;BME280;15817;42.130;24.762;2023-02-16T17:31:54;100985.13;;;8.09;60.58
28630;BME280;15817;42.130;24.762;2023-02-16T17:34:23;100982.44;;;8.06;60.85
28630;BME280;15817;42.130;24.762;2023-02-16T17:37:01;100992.22;;;8.10;61.31
28630;BME280;15817;42.130;24.762;2023-02-16T17:39:32;100984.16;;;8.04;61.41
28630;BME280;15817;42.130;24.762;2023-02-16T17:42:09;100985.13;;;8.07;61.02
28630;BME280;15817;42.130;24.762;2023-02-16T17:44:44;100977.81;;;7.97;61.52
28630;BME280;15817;42.130;24.762;2023-02-16T17:47:31;100967.22;;;7.95;61.60
28630;BME280;15817;42.130;24.762;2023-02-16T17:50:24;100983.16;;;7.98;61.44
28630;BME280;15817;42.130;24.762;2023-02-16T17:53:29;100975.00;;;7.89;61.15
28630;BME280;15817;42.130;24.762;2023-02-16T17:56:34;100989.16;;;7.90;61.60
28630;BME280;15817;42.130;24.762;2023-02-16T17:59:22;100970.44;;;7.82;61.76
28630;BME280;15817;42.130;24.762;2023-02-16T18:04:51;100972.03;;;7.76;61.27
28630;BME280;15817;42.130;24.762;2023-02-16T18:07:33;100978.19;;;7.75;61.40
28630;BME280;15817;42.130;24.762;2023-02-16T18:10:20;100984.41;;;7.77;61.63
28630;BME280;15817;42.130;24.762;2023-02-16T18:12:55;100972.72;;;7.67;61.15
28630;BME280;15817;42.130;24.762;2023-02-16T18:15:21;100977.25;;;7.71;61.45
28630;BME280;15817;42.130;24.762;2023-02-16T18:17:56;100973.50;;;7.63;61.46
28630;BME280;15817;42.130;24.762;2023-02-16T18:20:25;100974.34;;;7.62;61.92
28630;BME280;15817;42.130;24.762;2023-02-16T18:22:57;100968.00;;;7.54;62.04
28630;BME280;15817;42.130;24.762;2023-02-16T18:25:30;100975.03;;;7.53;62.44
28630;BME280;15817;42.130;24.762;2023-02-16T18:28:04;100971.47;;;7.51;62.54
28630;BME280;15817;42.130;24.762;2023-02-16T18:30:32;100982.94;;;7.52;62.52
28630;BME280;15817;42.130;24.762;2023-02-16T18:32:58;100980.03;;;7.41;62.98
28630;BME280;15817;42.130;24.762;2023-02-16T18:35:24;100971.16;;;7.39;63.04
28630;BME280;15817;42.130;24.762;2023-02-16T18:37:50;100978.19;;;7.39;62.91
28630;BME280;15817;42.130;24.762;2023-02-16T18:40:23;100985.28;;;7.40;63.03
28630;BME280;15817;42.130;24.762;2023-02-16T18:42:52;100975.41;;;7.33;63.30
28630;BME280;15817;42.130;24.762;2023-02-16T18:45:21;100985.97;;;7.31;63.17
28630;BME280;15817;42.130;24.762;2023-02-16T18:47:47;100986.03;;;7.34;63.61
28630;BME280;15817;42.130;24.762;2023-02-16T18:50:14;100980.63;;;7.30;63.86
28630;BME280;15817;42.130;24.762;2023-02-16T18:52:41;100977.03;;;7.27;63.76
28630;BME280;15817;42.130;24.762;2023-02-16T18:55:08;100975.25;;;7.25;63.89
28630;BME280;15817;42.130;24.762;2023-02-16T18:57:37;100987.63;;;7.26;64.16
28630;BME280;15817;42.130;24.762;2023-02-16T19:00:07;100996.47;;;7.28;64.20
28630;BME280;15817;42.130;24.762;2023-02-16T19:02:42;100989.38;;;7.25;64.22
28630;BME280;15817;42.130;24.762;2023-02-16T19:05:19;100990.25;;;7.26;64.44
28630;BME280;15817;42.130;24.762;2023-02-16T19:07:55;100997.16;;;7.21;64.62
28630;BME280;15817;42.130;24.762;2023-02-16T19:10:21;100999.78;;;7.19;64.29
28630;BME280;15817;42.130;24.762;2023-02-16T19:12:47;101001.47;;;7.17;64.12
28630;BME280;15817;42.130;24.762;2023-02-16T19:15:15;100991.56;;;7.09;64.20
28630;BME280;15817;42.130;24.762;2023-02-16T19:17:43;100996.03;;;7.11;64.04
28630;BME280;15817;42.130;24.762;2023-02-16T19:20:09;100998.75;;;7.13;64.07
28630;BME280;15817;42.130;24.762;2023-02-16T19:22:46;100986.09;;;7.01;64.21
28630;BME280;15817;42.130;24.762;2023-02-16T19:25:18;100999.34;;;7.03;64.47
28630;BME280;15817;42.130;24.762;2023-02-16T19:27:56;101001.09;;;7.02;64.31
28630;BME280;15817;42.130;24.762;2023-02-16T19:30:29;101012.59;;;7.04;64.67
28630;BME280;15817;42.130;24.762;2023-02-16T19:32:57;100995.69;;;6.98;64.92
28630;BME280;15817;42.130;24.762;2023-02-16T19:35:23;101009.03;;;7.02;64.91
28630;BME280;15817;42.130;24.762;2023-02-16T19:37:57;100998.13;;;6.90;65.18
28630;BME280;15817;42.130;24.762;2023-02-16T19:40:25;101010.50;;;6.93;65.13
28630;BME280;15817;42.130;24.762;2023-02-16T19:42:56;100997.91;;;6.82;65.27
28630;BME280;15817;42.130;24.762;2023-02-16T19:45:42;101002.34;;;6.83;65.59
28630;BME280;15817;42.130;24.762;2023-02-16T19:48:40;100996.16;;;6.83;66.11
28630;BME280;15817;42.130;24.762;2023-02-16T19:54:43;100984.47;;;6.75;66.45
28630;BME280;15817;42.130;24.762;2023-02-16T19:57:09;100989.81;;;6.76;66.50
28630;BME280;15817;42.130;24.762;2023-02-16T19:59:38;100982.59;;;6.71;66.63
28630;BME280;15817;42.130;24.762;2023-02-16T20:02:29;100974.59;;;6.68;66.48
28630;BME280;15817;42.130;24.762;2023-02-16T20:05:04;100985.19;;;6.68;66.55
28630;BME280;15817;42.130;24.762;2023-02-16T20:10:40;100972.69;;;6.62;66.16
28630;BME280;15817;42.130;24.762;2023-02-16T20:13:21;100984.16;;;6.63;66.07
28630;BME280;15817;42.130;24.762;2023-02-16T20:15:54;100968.97;;;6.56;66.20
28630;BME280;15817;42.130;24.762;2023-02-16T20:18:20;100982.34;;;6.62;66.47
28630;BME280;15817;42.130;24.762;2023-02-16T20:23:32;100977.84;;;6.58;66.55
28630;BME280;15817;42.130;24.762;2023-02-16T20:26:06;100972.34;;;6.50;66.59
28630;BME280;15817;42.130;24.762;2023-02-16T20:28:59;100966.03;;;6.45;66.82
28630;BME280;15817;42.130;24.762;2023-02-16T20:31:48;100956.28;;;6.42;67.15
28630;BME280;15817;42.130;24.762;2023-02-16T20:34:15;100967.84;;;6.46;67.18
28630;BME280;15817;42.130;24.762;2023-02-16T20:36:41;100964.94;;;6.38;67.17
28630;BME280;15817;42.130;24.762;2023-02-16T20:39:11;100965.81;;;6.37;66.90
28630;BME280;15817;42.130;24.762;2023-02-16T20:41:40;100965.84;;;6.39;66.82
28630;BME280;15817;42.130;24.762;2023-02-16T20:44:10;100973.81;;;6.40;66.63
28630;BME280;15817;42.130;24.762;2023-02-16T20:46:42;100956.00;;;6.33;66.79
28630;BME280;15817;42.130;24.762;2023-02-16T20:49:08;100963.00;;;6.31;66.76
28630;BME280;15817;42.130;24.762;2023-02-16T20:51:35;100954.09;;;6.28;67.05
28630;BME280;15817;42.130;24.762;2023-02-16T20:54:01;100971.88;;;6.33;67.04
28630;BME280;15817;42.130;24.762;2023-02-16T20:56:28;100953.06;;;6.23;67.13
28630;BME280;15817;42.130;24.762;2023-02-16T20:58:55;100954.97;;;6.28;67.37
28630;BME280;15817;42.130;24.762;2023-02-16T21:01:28;100945.16;;;6.23;67.26
28630;BME280;15817;42.130;24.762;2023-02-16T21:03:58;100943.22;;;6.17;66.83
28630;BME280;15817;42.130;24.762;2023-02-16T21:06:24;100959.22;;;6.23;67.12
28630;BME280;15817;42.130;24.762;2023-02-16T21:08:51;100938.66;;;6.13;67.13
28630;BME280;15817;42.130;24.762;2023-02-16T21:11:25;100943.00;;;6.09;67.23
28630;BME280;15817;42.130;24.762;2023-02-16T21:13:56;100943.91;;;6.10;66.63
28630;BME280;15817;42.130;24.762;2023-02-16T21:16:23;100948.22;;;6.08;66.39
28630;BME280;15817;42.130;24.762;2023-02-16T21:18:51;100957.94;;;6.09;66.50
28630;BME280;15817;42.130;24.762;2023-02-16T21:21:20;100957.75;;;6.03;66.66
28630;BME280;15817;42.130;24.762;2023-02-16T21:23:48;100958.53;;;6.00;66.78
28630;BME280;15817;42.130;24.762;2023-02-16T21:26:15;100946.59;;;5.85;66.92
28630;BME280;15817;42.130;24.762;2023-02-16T21:28:41;100964.34;;;5.89;66.91
28630;BME280;15817;42.130;24.762;2023-02-16T21:31:16;100963.41;;;5.87;66.88
28630;BME280;15817;42.130;24.762;2023-02-16T21:33:42;100964.16;;;5.82;66.28
28630;BME280;15817;42.130;24.762;2023-02-16T21:36:12;100959.66;;;5.80;65.93
28630;BME280;15817;42.130;24.762;2023-02-16T21:38:38;100954.81;;;5.65;66.05
28630;BME280;15817;42.130;24.762;2023-02-16T21:41:11;100957.31;;;5.61;66.30
28630;BME280;15817;42.130;24.762;2023-02-16T21:44:09;100952.88;;;5.60;66.30
28630;BME280;15817;42.130;24.762;2023-02-16T21:46:39;100961.47;;;5.53;66.40
28630;BME280;15817;42.130;24.762;2023-02-16T21:49:13;100965.00;;;5.53;66.60